Time;durP1;ratioP1;P1;durP2;ratioP2;P2;SDS_P1;SDS_P2;PMS_P1;PMS_P2;Temp;Humidity;BMP_temperature;BMP_pressure;BME280_temperature;BME280_humidity;BME280_pressure;Samples;Min_cycle;Max_cycle;Signal;HPM_P1;HPM_P2
2022/09/17 00:01:46;;;;;;;;;2.25;2.25;;;;;12.69;57.33;101097.56;5084477;27;46133;-79
2022/09/17 00:04:11;;;;;;;;;1.25;1.25;;;;;12.75;57.27;101109.84;5102943;27;45347;-79
2022/09/17 00:06:37;;;;;;;;;1.50;1.00;;;;;12.74;57.41;101124.88;5082791;27;45371;-78
2022/09/17 00:09:05;;;;;;;;;1.00;1.00;;;;;12.61;57.89;101095.06;5076154;27;45425;-79
2022/09/17 00:11:33;;;;;;;;;2.00;0.50;;;;;12.69;57.36;101118.78;5076281;27;46033;-79
2022/09/17 00:14:01;;;;;;;;;2.00;2.00;;;;;12.69;57.93;101120.56;5075769;27;45410;-79
2022/09/17 00:16:39;;;;;;;;;2.00;0.50;;;;;12.59;57.68;101101.34;5075405;27;45355;-78
2022/09/17 00:19:07;;;;;;;;;1.00;1.00;;;;;12.62;57.61;101107.44;5082635;27;45481;-79
2022/09/17 00:21:33;;;;;;;;;0.50;0.50;;;;;12.61;57.44;101113.63;5075714;27;46248;-79
2022/09/17 00:24:00;;;;;;;;;0.00;0.00;;;;;12.62;57.40;101118.06;5082282;27;45417;-78
2022/09/17 00:26:27;;;;;;;;;0.50;0.50;;;;;12.51;57.69;101101.50;5083187;27;45323;-79
2022/09/17 00:28:54;;;;;;;;;0.00;0.00;;;;;12.55;56.76;101112.91;5074935;27;45600;-79
2022/09/17 00:31:21;;;;;;;;;1.00;1.00;;;;;12.54;57.18;101117.34;5080800;27;46616;-79
2022/09/17 00:33:46;;;;;;;;;1.00;1.00;;;;;12.55;57.37;101128.81;5079801;27;45499;-79
2022/09/17 00:36:12;;;;;;;;;1.00;1.00;;;;;12.52;57.47;101123.56;5074999;27;45374;-79
2022/09/17 00:38:37;;;;;;;;;1.00;1.00;;;;;12.45;57.28;101117.53;5076141;27;45506;-80
2022/09/17 00:41:03;;;;;;;;;2.00;1.00;;;;;12.49;57.48;101119.19;5075829;27;45385;-79
2022/09/17 00:43:42;;;;;;;;;1.00;1.00;;;;;12.49;57.12;101129.78;5075095;27;45472;-78
2022/09/17 00:46:34;;;;;;;;;0.00;0.00;;;;;12.49;57.53;101124.50;5075129;27;45840;-78
2022/09/17 00:49:25;;;;;;;;;1.00;1.00;;;;;12.45;58.23;101117.53;5088966;27;45410;-79
2022/09/17 00:52:00;;;;;;;;;1.00;1.00;;;;;12.34;58.45;101103.56;5075597;28;45373;-79
2022/09/17 00:54:26;;;;;;;;;2.25;2.25;;;;;12.44;57.91;101121.94;5074923;28;45448;-79
2022/09/17 00:56:52;;;;;;;;;2.00;2.00;;;;;12.44;58.02;101121.94;5075480;27;45509;-79
2022/09/17 00:59:19;;;;;;;;;0.75;0.75;;;;;12.44;58.15;101127.22;5080503;27;45647;-78
2022/09/17 01:01:45;;;;;;;;;0.00;0.00;;;;;12.42;58.46;101122.88;5085188;27;46163;-79
2022/09/17 01:04:18;;;;;;;;;1.00;1.00;;;;;12.36;58.49;101117.66;5096114;27;45634;-79
2022/09/17 01:07:05;;;;;;;;;3.00;0.25;;;;;12.36;58.58;101117.66;5095747;27;45451;-80
2022/09/17 01:09:54;;;;;;;;;1.25;1.00;;;;;12.27;58.50;101111.66;5075108;27;45696;-78
2022/09/17 01:12:26;;;;;;;;;0.00;0.00;;;;;12.33;58.23;101125.69;5074715;28;46294;-80
2022/09/17 01:15:06;;;;;;;;;1.00;1.00;;;;;12.31;58.81;101132.78;5095644;27;45565;-79
2022/09/17 01:17:38;;;;;;;;;1.00;1.00;;;;;12.25;58.72;101124.06;5089679;27;45539;-78
2022/09/17 01:20:25;;;;;;;;;1.25;1.00;;;;;12.26;58.95;101120.50;5085201;27;45419;-79
2022/09/17 01:22:57;;;;;;;;;1.00;1.00;;;;;12.24;59.04;101130.25;5074416;27;46128;-78
2022/09/17 01:25:37;;;;;;;;;1.00;1.00;;;;;12.19;58.78;101125.94;5074493;27;45579;-79
2022/09/17 01:28:39;;;;;;;;;1.00;1.00;;;;;12.22;59.10;101124.13;5077059;27;45383;-80
2022/09/17 01:31:29;;;;;;;;;4.00;2.75;;;;;12.19;59.10;101132.13;5077411;27;45404;-80
2022/09/17 01:34:08;;;;;;;;;2.00;1.00;;;;;12.17;58.71;101133.91;5074878;27;46051;-78
2022/09/17 01:36:43;;;;;;;;;0.00;0.00;;;;;12.15;59.00;101129.56;5074999;27;45614;-79
2022/09/17 01:39:25;;;;;;;;;0.00;0.00;;;;;12.11;59.21;101131.38;5077639;27;45563;-78
2022/09/17 01:42:13;;;;;;;;;1.00;1.00;;;;;12.11;59.56;101139.31;5092910;27;45418;-80
2022/09/17 01:44:55;;;;;;;;;1.25;1.25;;;;;12.09;59.58;101141.13;5093521;27;46387;-79
2022/09/17 01:47:26;;;;;;;;;1.00;0.00;;;;;12.05;59.72;101140.28;5091733;27;45416;-79
2022/09/17 01:50:01;;;;;;;;;1.25;1.00;;;;;12.05;60.12;101150.03;5082506;27;45483;-80
2022/09/17 01:52:28;;;;;;;;;1.25;1.25;;;;;11.88;60.20;101116.72;5094891;27;45648;-80
2022/09/17 01:54:57;;;;;;;;;1.00;1.00;;;;;12.01;60.13;101149.22;5094982;27;46343;-80
2022/09/17 01:57:37;;;;;;;;;2.00;0.75;;;;;12.00;59.79;101146.59;5098911;27;45515;-79
2022/09/17 02:00:16;;;;;;;;;1.25;1.25;;;;;11.97;60.03;101155.47;5075513;27;45535;-79
2022/09/17 02:02:49;;;;;;;;;1.25;1.25;;;;;11.99;59.98;101150.13;5087576;27;45425;-78
2022/09/17 02:05:23;;;;;;;;;1.00;1.00;;;;;11.97;59.87;101157.25;5094867;27;46195;-79
2022/09/17 02:08:03;;;;;;;;;1.50;1.00;;;;;11.94;60.30;101152.00;5090074;27;45599;-79
2022/09/17 02:10:35;;;;;;;;;0.00;0.00;;;;;11.83;59.89;101139.75;5084974;27;45558;-79
2022/09/17 02:13:08;;;;;;;;;0.00;0.00;;;;;11.89;60.28;101149.38;5074850;27;45445;-79
2022/09/17 02:15:38;;;;;;;;;1.00;1.00;;;;;11.88;60.26;101148.50;5073979;27;46183;-79
2022/09/17 02:18:26;;;;;;;;;1.00;1.00;;;;;11.85;60.50;101142.38;5079978;27;45527;-79
2022/09/17 02:21:01;;;;;;;;;1.00;1.00;;;;;11.83;60.40;101155.66;5070716;28;45609;-77
2022/09/17 02:23:31;;;;;;;;;2.00;1.00;;;;;11.74;60.29;101139.91;5073037;28;45538;-79
2022/09/17 02:26:08;;;;;;;;;0.00;0.00;;;;;11.76;60.62;101148.69;5058759;28;46198;-79
2022/09/17 02:28:36;;;;;;;;;3.00;1.00;;;;;11.77;60.84;101154.84;5061174;28;45563;-80
2022/09/17 02:31:02;;;;;;;;;1.75;1.75;;;;;11.73;60.61;101148.75;5051704;28;45593;-79
2022/09/17 02:33:29;;;;;;;;;1.00;1.00;;;;;11.52;60.90;101113.78;5051295;28;45689;-79
2022/09/17 02:35:54;;;;;;;;;1.50;1.00;;;;;11.69;60.72;101142.63;5051484;28;46622;-79
2022/09/17 02:38:28;;;;;;;;;1.00;1.00;;;;;11.68;60.78;101146.16;5051694;28;45510;-79
2022/09/17 02:40:59;;;;;;;;;1.00;0.75;;;;;11.66;60.74;101142.69;5051378;28;45484;-79
2022/09/17 02:44:03;;;;;;;;;1.00;1.00;;;;;11.67;60.71;101143.53;5067026;28;45501;-79
2022/09/17 02:46:55;;;;;;;;;1.00;1.00;;;;;11.66;60.91;101141.78;4995096;28;46328;-78
2022/09/17 02:49:43;;;;;;;;;0.75;0.75;;;;;11.63;60.85;101141.84;4977594;28;45408;-79
2022/09/17 02:52:21;;;;;;;;;1.50;0.75;;;;;11.62;60.94;101135.69;4915204;28;45386;-78
2022/09/17 02:55:11;;;;;;;;;1.00;1.00;;;;;11.59;60.66;101135.72;4923491;28;45465;-78
2022/09/17 02:57:46;;;;;;;;;1.00;1.00;;;;;11.45;60.34;101113.88;4923330;28;45623;-78
2022/09/17 03:00:18;;;;;;;;;1.00;1.00;;;;;11.58;59.89;101141.03;4936602;28;45414;-78
2022/09/17 03:02:52;;;;;;;;;2.00;1.75;;;;;11.50;60.00;101130.56;4935071;28;45552;-78
2022/09/17 03:05:20;;;;;;;;;2.00;1.00;;;;;11.58;60.33;101143.69;4936736;28;45421;-79
2022/09/17 03:07:46;;;;;;;;;2.00;1.00;;;;;11.55;60.26;101136.66;4934712;28;45451;-78
2022/09/17 03:10:12;;;;;;;;;0.50;0.50;;;;;11.58;60.25;101143.69;4934467;28;45404;-79
2022/09/17 03:12:38;;;;;;;;;2.00;1.00;;;;;11.54;60.14;101142.88;4935584;28;45630;-78
2022/09/17 03:15:04;;;;;;;;;1.00;1.00;;;;;11.55;60.06;101148.16;4919952;28;45535;-78
2022/09/17 03:17:30;;;;;;;;;1.00;1.00;;;;;11.54;60.29;101146.38;4935015;28;46157;-80
2022/09/17 03:19:56;;;;;;;;;1.50;1.50;;;;;11.24;60.25;101100.06;4935871;28;45438;-79
2022/09/17 03:22:21;;;;;;;;;1.00;1.00;;;;;11.50;60.74;101146.44;4947710;28;45507;-78
2022/09/17 03:24:47;;;;;;;;;1.00;1.00;;;;;11.48;60.39;101138.53;5035345;28;45493;-78
2022/09/17 03:27:12;;;;;;;;;0.00;0.00;;;;;11.47;60.42;101142.06;5034349;28;45504;-79
2022/09/17 03:29:39;;;;;;;;;2.75;1.00;;;;;11.41;60.94;101134.22;5058617;28;45478;-78
2022/09/17 03:32:06;;;;;;;;;0.00;0.00;;;;;11.46;60.80;101147.38;5077130;28;45344;-79
2022/09/17 03:34:31;;;;;;;;;0.50;0.50;;;;;11.43;60.56;101139.50;5076592;27;45324;-79
2022/09/17 03:36:57;;;;;;;;;1.00;1.00;;;;;11.45;60.71;101151.81;5075786;27;46569;-79
2022/09/17 03:39:22;;;;;;;;;0.75;0.75;;;;;11.40;60.88;101144.84;5076431;27;45774;-78
2022/09/17 03:41:47;;;;;;;;;0.00;0.00;;;;;11.41;60.89;101151.88;5079937;27;45397;-79
2022/09/17 03:44:14;;;;;;;;;0.00;0.00;;;;;11.30;61.05;101133.50;5082032;27;45479;-79
2022/09/17 03:46:40;;;;;;;;;0.00;0.00;;;;;11.36;61.34;101152.81;5093843;27;46109;-78
2022/09/17 03:49:05;;;;;;;;;1.00;1.00;;;;;11.37;61.20;101153.69;5084855;27;45391;-80
2022/09/17 03:51:30;;;;;;;;;3.50;2.00;;;;;11.37;61.10;101161.63;5082423;28;45512;-79
2022/09/17 03:53:56;;;;;;;;;1.00;1.00;;;;;11.31;61.23;101159.06;5075767;27;45489;-78
2022/09/17 03:56:21;;;;;;;;;2.75;1.00;;;;;11.30;61.44;101160.84;5091014;27;45432;-79
2022/09/17 03:58:48;;;;;;;;;0.75;0.75;;;;;11.25;61.39;101153.84;5097006;27;45480;-79
2022/09/17 04:01:13;;;;;;;;;2.00;1.00;;;;;11.27;61.40;101173.25;5096640;27;45319;-77
2022/09/17 04:03:39;;;;;;;;;2.00;1.00;;;;;11.27;61.53;101165.31;5096910;27;45706;-79
2022/09/17 04:06:04;;;;;;;;;0.00;0.00;;;;;11.21;61.32;101155.69;5083271;27;46157;-78
2022/09/17 04:08:29;;;;;;;;;1.75;1.00;;;;;11.12;61.80;101146.09;5082262;27;45416;-78
2022/09/17 04:10:55;;;;;;;;;0.75;0.75;;;;;11.25;61.83;101173.28;5094831;27;45507;-80
2022/09/17 04:13:20;;;;;;;;;1.25;0.75;;;;;11.16;62.07;101158.38;5075818;27;45601;-79
2022/09/17 04:15:46;;;;;;;;;2.00;1.00;;;;;11.15;61.56;101167.22;5076607;27;45540;-80
2022/09/17 04:18:12;;;;;;;;;1.25;1.25;;;;;11.19;61.70;101170.72;5082484;27;45493;-79
2022/09/17 04:20:38;;;;;;;;;4.25;2.25;;;;;11.11;61.85;101173.44;5096674;27;45444;-80
2022/09/17 04:23:06;;;;;;;;;2.75;1.00;;;;;11.18;61.92;101188.34;5097218;27;45338;-78
2022/09/17 04:25:32;;;;;;;;;1.25;0.25;;;;;11.17;62.00;101191.00;5105131;27;45941;-79
2022/09/17 04:27:57;;;;;;;;;2.00;0.50;;;;;11.18;62.38;101188.34;5078952;27;45515;-80
2022/09/17 04:30:22;;;;;;;;;1.75;1.00;;;;;11.13;62.68;101181.34;5076889;27;45733;-79
2022/09/17 04:32:48;;;;;;;;;0.75;0.75;;;;;11.16;62.99;101189.28;5085837;27;45341;-79
2022/09/17 04:35:13;;;;;;;;;0.75;0.75;;;;;11.12;63.23;101187.56;5090736;27;45405;-80
2022/09/17 04:37:39;;;;;;;;;1.25;0.50;;;;;11.10;62.67;101190.22;5075825;27;45295;-79
2022/09/17 04:40:06;;;;;;;;;0.00;0.00;;;;;10.90;63.21;101161.38;5075928;27;45393;-79
2022/09/17 04:42:31;;;;;;;;;2.00;1.00;;;;;11.02;63.52;101182.38;5075764;27;45381;-79
2022/09/17 04:44:57;;;;;;;;;4.25;1.25;;;;;11.05;63.82;101191.16;5075453;27;46320;-78
2022/09/17 04:47:23;;;;;;;;;4.00;1.00;;;;;10.93;63.32;101174.56;5076369;28;45405;-78
2022/09/17 04:49:49;;;;;;;;;1.00;1.00;;;;;11.02;63.45;101192.06;5079464;27;45429;-78
2022/09/17 04:52:14;;;;;;;;;1.00;1.00;;;;;11.00;63.70;101188.56;5076658;27;45367;-79
2022/09/17 04:54:40;;;;;;;;;1.00;1.00;;;;;11.02;63.64;101197.34;5075969;28;45982;-79
2022/09/17 04:57:05;;;;;;;;;1.50;1.50;;;;;11.00;63.44;101204.44;5078206;27;45479;-77
2022/09/17 04:59:31;;;;;;;;;0.75;0.50;;;;;10.97;63.72;101197.41;5075874;27;45390;-78
2022/09/17 05:01:56;;;;;;;;;0.50;0.50;;;;;10.95;63.41;101195.69;5083438;27;45640;-78
2022/09/17 05:04:21;;;;;;;;;1.25;1.00;;;;;10.87;63.76;101197.53;5095172;27;45933;-79
2022/09/17 05:06:47;;;;;;;;;0.75;0.75;;;;;10.90;64.05;101206.34;5077997;27;45493;-78
2022/09/17 05:09:13;;;;;;;;;1.00;1.00;;;;;10.91;63.99;101209.84;5075157;27;45429;-78
2022/09/17 05:11:39;;;;;;;;;1.50;1.50;;;;;10.90;64.44;101210.72;5073634;27;45658;-78
2022/09/17 05:14:04;;;;;;;;;1.00;1.00;;;;;10.87;64.37;101206.38;5075229;27;46987;-79
2022/09/17 05:16:29;;;;;;;;;0.50;0.50;;;;;10.78;64.51;101196.75;5080492;27;45344;-79
2022/09/17 05:18:56;;;;;;;;;1.00;1.00;;;;;10.75;64.61;101191.50;5077850;27;45418;-79
2022/09/17 05:21:22;;;;;;;;;1.75;1.00;;;;;10.78;64.51;101204.69;5076622;27;45560;-79
2022/09/17 05:23:47;;;;;;;;;1.75;1.75;;;;;10.83;64.72;101208.16;5074887;27;46289;-79
2022/09/17 05:26:13;;;;;;;;;1.00;1.00;;;;;10.83;64.70;101217.84;5075161;27;45484;-79
2022/09/17 05:28:39;;;;;;;;;0.00;0.00;;;;;10.82;64.75;101213.44;5074871;28;45420;-79
2022/09/17 05:31:04;;;;;;;;;0.50;0.50;;;;;10.76;64.43;101218.81;5074740;27;45512;-79
2022/09/17 05:33:30;;;;;;;;;0.25;0.25;;;;;10.72;64.58;101207.41;5082601;27;45381;-78
2022/09/17 05:35:56;;;;;;;;;1.00;1.00;;;;;10.79;65.05;101221.41;5095525;27;45483;-78
2022/09/17 05:38:21;;;;;;;;;1.00;1.00;;;;;10.79;64.77;101216.13;5078245;27;45403;-75
2022/09/17 05:40:47;;;;;;;;;0.00;0.00;;;;;10.89;64.82;101211.63;5076745;27;45528;-79
2022/09/17 05:43:14;;;;;;;;;0.75;0.75;;;;;11.08;64.61;101228.16;5079484;27;45442;-78
2022/09/17 05:45:40;;;;;;;;;1.00;1.00;;;;;11.33;63.73;101213.72;5077331;27;45474;-74
2022/09/17 05:48:08;;;;;;;;;1.00;1.00;;;;;11.50;62.50;101192.31;5074826;27;45287;-76
2022/09/17 05:50:34;;;;;;;;;1.25;1.00;;;;;12.00;61.57;101215.47;5074382;27;45447;-75
2022/09/17 05:53:25;;;;;;;;;1.00;1.00;;;;;12.60;59.82;101220.63;5075480;27;45467;-80
2022/09/17 05:55:55;;;;;;;;;0.25;0.25;;;;;13.05;58.19;101210.94;5093353;27;45531;-79
2022/09/17 05:58:21;;;;;;;;;1.00;1.00;;;;;13.55;57.12;101221.44;5095066;27;45506;-79
2022/09/17 06:00:47;;;;;;;;;1.50;1.50;;;;;14.07;56.05;101222.00;5093523;27;45653;-77
2022/09/17 06:03:14;;;;;;;;;0.00;0.00;;;;;14.59;53.99;101226.00;5089161;27;45516;-77
2022/09/17 06:05:40;;;;;;;;;2.00;1.00;;;;;15.04;52.76;101206.19;5074678;27;45448;-76
2022/09/17 06:08:06;;;;;;;;;0.50;0.50;;;;;15.64;51.24;101212.41;5074012;27;45457;-78
2022/09/17 06:10:35;;;;;;;;;2.00;2.00;;;;;16.30;49.85;101217.41;5075229;27;45514;-77
2022/09/17 06:13:00;;;;;;;;;0.75;0.00;;;;;16.81;47.84;101208.53;5088661;27;45552;-76
2022/09/17 06:15:26;;;;;;;;;2.00;1.00;;;;;17.34;46.58;101206.59;5076666;27;45473;-78
2022/09/17 06:17:52;;;;;;;;;1.00;1.00;;;;;18.03;45.11;101221.75;5074065;28;45501;-76
2022/09/17 06:20:18;;;;;;;;;2.00;1.00;;;;;18.42;43.81;101199.63;5074139;27;45540;-77
2022/09/17 06:22:43;;;;;;;;;0.00;0.00;;;;;19.05;42.57;101212.06;5084363;27;47000;-77
2022/09/17 06:25:09;;;;;;;;;0.50;0.50;;;;;19.62;41.44;101223.69;5073913;27;45478;-77
2022/09/17 06:27:35;;;;;;;;;1.00;1.00;;;;;20.14;40.16;101222.13;5076104;27;45357;-79
2022/09/17 06:30:01;;;;;;;;;1.00;1.00;;;;;20.55;38.74;101213.78;5075228;27;45444;-77
2022/09/17 06:32:27;;;;;;;;;2.75;1.00;;;;;20.97;38.35;101219.69;5072918;27;45449;-77
2022/09/17 06:34:54;;;;;;;;;0.25;0.25;;;;;21.34;37.35;101194.34;5075269;28;45649;-80
2022/09/17 06:37:20;;;;;;;;;0.75;0.75;;;;;21.88;36.49;101222.75;5074585;27;45485;-78
2022/09/17 06:39:45;;;;;;;;;2.75;0.25;;;;;22.23;36.15;101207.28;5074598;27;45424;-77
2022/09/17 06:42:11;;;;;;;;;1.00;1.00;;;;;22.73;35.14;101209.72;5075857;27;45436;-77
2022/09/17 06:44:37;;;;;;;;;1.00;1.00;;;;;23.10;35.10;101221.81;5078094;27;45389;-77
2022/09/17 06:47:02;;;;;;;;;2.00;2.00;;;;;23.51;33.49;101218.31;5073698;27;45408;-78
2022/09/17 06:49:29;;;;;;;;;1.00;1.00;;;;;23.86;32.86;101209.78;5073978;27;45424;-77
2022/09/17 06:51:55;;;;;;;;;1.50;1.00;;;;;24.15;32.07;101215.06;5074237;28;45453;-77
2022/09/17 06:54:20;;;;;;;;;0.75;0.75;;;;;24.48;32.12;101216.47;5077055;27;45502;-78
2022/09/17 06:56:46;;;;;;;;;2.00;2.00;;;;;25.04;31.66;101228.84;5092370;27;45406;-78
2022/09/17 06:59:12;;;;;;;;;1.75;1.75;;;;;25.36;30.45;101221.19;5072618;27;45363;-78
2022/09/17 07:01:37;;;;;;;;;0.00;0.00;;;;;25.46;29.94;101210.53;5077892;27;46345;-78
2022/09/17 07:04:03;;;;;;;;;0.75;0.75;;;;;25.36;30.04;101167.94;5081169;27;45498;-78
2022/09/17 07:06:28;;;;;;;;;1.00;1.00;;;;;25.97;29.25;101221.19;5074460;27;45508;-77
2022/09/17 07:08:53;;;;;;;;;1.00;1.00;;;;;26.23;29.52;101227.38;5096281;27;45432;-77
2022/09/17 07:11:19;;;;;;;;;2.00;2.00;;;;;26.32;28.42;101212.28;5095473;27;48244;-78
2022/09/17 07:13:44;;;;;;;;;0.00;0.00;;;;;26.63;28.38;101228.00;5094169;27;45457;-77
2022/09/17 07:16:10;;;;;;;;;1.00;0.00;;;;;26.79;27.52;101208.75;5074284;27;45453;-78
2022/09/17 07:18:35;;;;;;;;;0.75;0.00;;;;;27.06;27.72;101220.09;5092666;27;45475;-77
2022/09/17 07:21:04;;;;;;;;;0.00;0.00;;;;;27.18;27.36;101198.38;5094012;27;45543;-81
2022/09/17 07:23:32;;;;;;;;;0.00;0.00;;;;;27.44;26.77;101197.19;5093357;27;45508;-81
2022/09/17 07:26:00;;;;;;;;;0.50;0.50;;;;;27.66;26.56;101203.53;5078831;27;45351;-79
2022/09/17 07:28:26;;;;;;;;;1.00;1.00;;;;;27.97;27.81;101210.03;5073893;27;45596;-78
2022/09/17 07:30:52;;;;;;;;;1.00;1.00;;;;;28.13;26.23;101208.75;5076907;27;46245;-80
2022/09/17 07:33:23;;;;;;;;;1.00;1.00;;;;;28.51;25.84;101196.44;5076715;28;45440;-79
2022/09/17 07:35:57;;;;;;;;;0.00;0.00;;;;;28.76;24.91;101189.78;5077573;27;45429;-79
2022/09/17 07:38:23;;;;;;;;;0.00;0.00;;;;;28.97;25.88;101203.34;5078699;27;45392;-79
2022/09/17 07:40:58;;;;;;;;;1.00;1.00;;;;;29.06;24.88;101205.25;5086769;27;45386;-80
2022/09/17 07:43:25;;;;;;;;;1.25;0.25;;;;;29.05;24.19;101211.69;5094228;27;45523;-80
2022/09/17 07:45:52;;;;;;;;;0.50;0.25;;;;;29.12;24.50;101209.25;5087695;27;46065;-79
2022/09/17 07:48:18;;;;;;;;;1.00;1.00;;;;;29.19;24.92;101205.00;5105145;27;45593;-80
2022/09/17 07:50:43;;;;;;;;;0.00;0.00;;;;;29.32;24.25;101212.09;5092868;27;46413;-80
2022/09/17 07:53:09;;;;;;;;;0.75;0.75;;;;;29.49;23.94;101202.44;5080882;27;45519;-80
2022/09/17 07:55:34;;;;;;;;;0.25;0.25;;;;;29.71;23.29;101207.63;5091525;27;45542;-79
2022/09/17 07:58:00;;;;;;;;;0.25;0.25;;;;;29.79;23.64;101215.13;5083517;27;45527;-80
2022/09/17 08:00:25;;;;;;;;;1.00;1.00;;;;;29.89;23.01;101205.09;5088637;27;50675;-80
2022/09/17 08:02:57;;;;;;;;;0.75;0.75;;;;;29.93;23.49;101222.03;5082794;27;45409;-80
2022/09/17 08:05:23;;;;;;;;;0.00;0.00;;;;;29.94;24.05;101213.72;5078151;27;45379;-80
2022/09/17 08:07:53;;;;;;;;;0.25;0.00;;;;;30.00;22.98;101219.59;5087019;27;45389;-80
2022/09/17 08:10:21;;;;;;;;;0.25;0.25;;;;;30.13;23.08;101210.13;5086672;27;45486;-80
2022/09/17 08:12:48;;;;;;;;;1.00;1.00;;;;;30.23;23.11;101212.00;5084401;27;45521;-80
2022/09/17 08:15:15;;;;;;;;;0.50;0.50;;;;;30.33;23.35;101217.47;5088005;27;45432;-80
2022/09/17 08:17:44;;;;;;;;;0.75;0.75;;;;;30.55;22.94;101230.81;5096228;27;45380;-81
2022/09/17 08:20:10;;;;;;;;;0.75;0.00;;;;;30.56;22.60;101223.47;5096379;27;45381;-79
2022/09/17 08:22:36;;;;;;;;;0.00;0.00;;;;;30.50;22.20;101222.19;5084446;27;45756;-80
2022/09/17 08:25:06;;;;;;;;;1.75;0.50;;;;;30.46;22.15;101223.50;5096174;27;45499;-80
2022/09/17 08:27:31;;;;;;;;;0.25;0.25;;;;;30.45;23.01;101227.22;5078677;27;45461;-80
2022/09/17 08:29:56;;;;;;;;;1.50;0.75;;;;;30.46;22.57;101228.97;5075787;27;45977;-80
2022/09/17 08:32:22;;;;;;;;;0.00;0.00;;;;;30.55;22.98;101232.66;5077119;27;45510;-80
2022/09/17 08:34:48;;;;;;;;;1.00;0.00;;;;;30.57;23.21;101231.53;5081107;27;45350;-81
2022/09/17 08:37:13;;;;;;;;;0.00;0.00;;;;;30.62;22.37;101234.66;5087878;27;45485;-81
2022/09/17 08:39:38;;;;;;;;;0.50;0.50;;;;;30.67;22.58;101231.50;5093684;27;45576;-80
2022/09/17 08:42:26;;;;;;;;;0.00;0.00;;;;;30.67;23.44;101238.81;5078334;27;45554;-81
2022/09/17 08:44:54;;;;;;;;;0.25;0.25;;;;;30.72;22.01;101212.00;5094092;27;45456;-80
2022/09/17 08:47:37;;;;;;;;;0.25;0.25;;;;;30.80;22.81;101242.94;5084150;27;45376;-82
2022/09/17 08:50:13;;;;;;;;;2.00;0.00;;;;;30.74;22.48;101245.41;5090699;27;45626;-79
2022/09/17 08:53:10;;;;;;;;;2.00;1.25;;;;;30.57;22.38;101250.59;5074032;27;45376;-81
2022/09/17 08:55:59;;;;;;;;;1.25;1.25;;;;;30.08;22.76;101255.19;5076805;27;45403;-81
2022/09/17 08:58:48;;;;;;;;;1.75;0.25;;;;;30.22;23.06;101249.31;5082086;27;45547;-80
2022/09/17 09:01:22;;;;;;;;;0.25;0.25;;;;;29.99;23.12;101253.28;5077658;27;45496;-80
2022/09/17 09:03:58;;;;;;;;;0.75;0.00;;;;;30.06;23.21;101249.00;5102375;27;45334;-80
2022/09/17 09:06:28;;;;;;;;;0.00;0.00;;;;;30.42;22.60;101254.78;5091976;27;45262;-80
2022/09/17 09:09:02;;;;;;;;;1.00;0.00;;;;;30.28;23.11;101246.00;5083964;27;45552;-81
2022/09/17 09:11:30;;;;;;;;;0.75;0.75;;;;;30.66;23.05;101251.59;5081717;27;45480;-79
2022/09/17 09:14:26;;;;;;;;;0.00;0.00;;;;;30.42;22.74;101244.72;5077043;27;45536;-80
2022/09/17 09:16:55;;;;;;;;;1.00;0.00;;;;;30.11;23.12;101252.16;5082838;27;45453;-81
2022/09/17 09:19:28;;;;;;;;;0.00;0.00;;;;;29.75;23.49;101260.81;5080303;27;45378;-80
2022/09/17 09:22:02;;;;;;;;;0.00;0.00;;;;;29.38;23.57;101266.84;5084658;27;45479;-80
2022/09/17 09:24:52;;;;;;;;;1.00;1.00;;;;;29.56;24.24;101268.91;5076837;27;45351;-80
2022/09/17 09:27:27;;;;;;;;;1.00;0.50;;;;;29.78;23.44;101251.50;5084978;27;45419;-79
2022/09/17 09:30:12;;;;;;;;;2.50;0.25;;;;;30.04;22.90;101272.81;5083921;27;45350;-80
2022/09/17 09:32:59;;;;;;;;;0.00;0.00;;;;;29.71;23.54;101263.94;5081872;27;45522;-79
2022/09/17 09:35:32;;;;;;;;;0.00;0.00;;;;;29.79;23.92;101264.13;5082820;27;45914;-82
2022/09/17 09:38:34;;;;;;;;;0.25;0.25;;;;;29.93;23.96;101271.94;5087232;27;45472;-83
2022/09/17 09:41:10;;;;;;;;;0.50;0.50;;;;;30.12;22.90;101270.22;5075113;27;45440;-79
2022/09/17 09:43:44;;;;;;;;;0.25;0.25;;;;;29.64;23.87;101265.50;5086861;27;46211;-79
2022/09/17 09:46:40;;;;;;;;;1.00;1.00;;;;;28.54;24.20;101264.13;5087647;27;45469;-80
2022/09/17 09:49:19;;;;;;;;;2.00;0.00;;;;;27.75;24.84;101275.22;5076397;27;45429;-79
2022/09/17 09:52:01;;;;;;;;;1.00;1.00;;;;;26.97;25.81;101263.38;5091272;27;45378;-84
2022/09/17 09:54:55;;;;;;;;;2.25;1.00;;;;;26.86;26.07;101283.16;5074636;27;45365;-79
2022/09/17 09:57:57;;;;;;;;;0.00;0.00;;;;;26.80;25.59;101273.69;5074895;27;45330;-79
2022/09/17 10:00:38;;;;;;;;;0.00;0.00;;;;;26.95;25.09;101283.31;5096077;27;45599;-82
2022/09/17 10:03:13;;;;;;;;;2.25;1.00;;;;;27.51;24.88;101268.09;5095234;27;45446;-80
2022/09/17 10:05:50;;;;;;;;;1.75;0.00;;;;;27.89;24.18;101263.22;5089602;27;46311;-79
2022/09/17 10:08:16;;;;;;;;;1.00;0.00;;;;;28.46;23.91;101258.50;5071350;27;45480;-78
2022/09/17 10:11:02;;;;;;;;;1.75;0.25;;;;;28.81;23.43;101268.22;5074271;27;45410;-79
2022/09/17 10:13:31;;;;;;;;;0.00;0.00;;;;;28.23;23.28;101269.47;5090884;27;45529;-77
2022/09/17 10:16:18;;;;;;;;;1.75;1.75;;;;;27.73;24.51;101261.78;5091288;27;45578;-79
2022/09/17 10:18:44;;;;;;;;;1.00;1.00;;;;;27.27;24.28;101266.34;5091936;27;45542;-78
2022/09/17 10:21:29;;;;;;;;;1.50;0.50;;;;;27.03;25.68;101268.31;5090970;27;45548;-79
2022/09/17 10:23:54;;;;;;;;;1.00;0.25;;;;;26.46;25.32;101273.53;5070991;27;45593;-80
2022/09/17 10:26:26;;;;;;;;;0.00;0.00;;;;;25.73;26.28;101271.75;5076322;27;45926;-79
2022/09/17 10:28:56;;;;;;;;;1.00;1.00;;;;;25.47;26.82;101283.47;5103209;27;45586;-79
2022/09/17 10:31:22;;;;;;;;;1.00;0.75;;;;;25.56;26.70;101267.56;5098547;27;45639;-80
2022/09/17 10:33:59;;;;;;;;;2.00;0.25;;;;;25.84;26.49;101259.16;5080287;27;45542;-78
2022/09/17 10:36:45;;;;;;;;;2.00;0.75;;;;;25.76;27.10;101260.69;5080354;27;46448;-78
2022/09/17 10:39:25;;;;;;;;;1.25;0.00;;;;;25.49;27.49;101275.25;5098971;27;45483;-78
2022/09/17 10:42:05;;;;;;;;;2.25;1.00;;;;;25.17;26.88;101264.84;5101698;27;45411;-86
2022/09/17 10:44:35;;;;;;;;;0.50;0.00;;;;;25.70;28.18;101254.75;5087934;27;45509;-78
2022/09/17 10:47:10;;;;;;;;;0.50;0.00;;;;;25.56;26.96;101260.31;5081864;27;45538;-80
2022/09/17 10:50:34;;;;;;;;;0.25;0.25;;;;;25.11;26.91;101270.69;5085045;27;45546;-80
2022/09/17 10:53:05;;;;;;;;;0.00;0.00;;;;;25.38;27.47;101256.22;5011507;28;45516;-81
2022/09/17 10:55:47;;;;;;;;;0.00;0.00;;;;;26.22;26.21;101249.16;5012341;28;46453;-78
2022/09/17 10:58:34;;;;;;;;;0.00;0.00;;;;;26.44;24.51;101255.69;5017505;28;46643;-79
2022/09/17 11:01:06;;;;;;;;;0.00;0.00;;;;;26.86;25.10;101250.63;5011854;28;45528;-79
2022/09/17 11:04:02;;;;;;;;;0.00;0.00;;;;;26.78;25.11;101237.69;5022613;28;45509;-77
2022/09/17 11:06:36;;;;;;;;;0.00;0.00;;;;;26.08;25.72;101244.78;5019540;28;45488;-79
2022/09/17 11:09:14;;;;;;;;;0.00;0.00;;;;;25.50;26.43;101249.94;5023705;28;45530;-79
2022/09/17 11:12:02;;;;;;;;;2.00;2.00;;;;;25.25;26.39;101246.25;5014318;28;45492;-78
2022/09/17 11:14:45;;;;;;;;;0.75;0.75;;;;;25.45;26.27;101242.16;5016984;28;45790;-79
2022/09/17 11:17:48;;;;;;;;;0.00;0.00;;;;;26.11;25.14;101217.47;5034395;28;45593;-79
2022/09/17 11:20:44;;;;;;;;;0.75;0.75;;;;;26.84;24.54;101225.50;4994333;28;48355;-79
2022/09/17 11:23:28;;;;;;;;;0.00;0.00;;;;;26.67;24.88;101229.53;4992322;28;45477;-79
2022/09/17 11:26:03;;;;;;;;;3.25;2.25;;;;;26.59;24.68;101227.38;5001571;28;45585;-78
2022/09/17 11:28:57;;;;;;;;;0.00;0.00;;;;;26.03;25.10;101182.84;5020821;28;45538;-78
2022/09/17 11:31:47;;;;;;;;;0.25;0.25;;;;;26.18;23.61;101231.44;5019078;28;46268;-88
2022/09/17 11:34:28;;;;;;;;;0.00;0.00;;;;;25.81;24.37;101231.44;5005186;28;45300;-78
2022/09/17 11:37:10;;;;;;;;;0.00;0.00;;;;;25.98;23.63;101228.38;5008657;28;45565;-79
2022/09/17 11:39:54;;;;;;;;;0.25;0.25;;;;;25.96;24.40;101213.19;4976943;28;45439;-78
2022/09/17 11:42:29;;;;;;;;;0.00;0.00;;;;;26.11;24.04;101213.91;4993855;28;46509;-76
2022/09/17 11:45:26;;;;;;;;;0.00;0.00;;;;;26.64;23.39;101208.91;5009759;28;45578;-77
2022/09/17 11:48:05;;;;;;;;;0.00;0.00;;;;;26.31;23.09;101215.09;4993479;28;45527;-77